Time;durP1;ratioP1;P1;durP2;ratioP2;P2;SDS_P1;SDS_P2;PMS_P1;PMS_P2;Temp;Humidity;BMP_temperature;BMP_pressure;BME280_temperature;BME280_humidity;BME280_pressure;Samples;Min_cycle;Max_cycle;Signal;HPM_P1;HPM_P2
2021/04/26 00:01:49;;;;;;;3.85;2.65;;;;;;;;;;5076595;28;20204;-63
2021/04/26 00:04:16;;;;;;;7.15;4.10;;;;;;;;;;5076422;28;20207;-61
2021/04/26 00:06:43;;;;;;;4.72;3.15;;;;;;;;;;5076457;28;20204;-62
2021/04/26 00:09:09;;;;;;;5.70;3.17;;;;;;;;;;5074661;28;20223;-62
2021/04/26 00:11:36;;;;;;;4.35;3.47;;;;;;;;;;5076304;28;20184;-61
2021/04/26 00:14:04;;;;;;;4.90;2.97;;;;;;;;;;5075967;28;20196;-61
2021/04/26 00:16:31;;;;;;;4.20;3.60;;;;;;;;;;5076039;28;20192;-62
2021/04/26 00:18:57;;;;;;;5.28;4.15;;;;;;;;;;5076104;28;20601;-62
2021/04/26 00:21:25;;;;;;;5.47;4.68;;;;;;;;;;5075902;28;20192;-62
2021/04/26 00:23:51;;;;;;;4.95;3.72;;;;;;;;;;5075923;28;20237;-62
2021/04/26 00:26:18;;;;;;;3.65;3.35;;;;;;;;;;5075719;28;20188;-62
2021/04/26 00:28:45;;;;;;;3.75;2.97;;;;;;;;;;5075799;28;20216;-62
2021/04/26 00:31:11;;;;;;;4.63;3.03;;;;;;;;;;5075718;28;20230;-62
2021/04/26 00:33:38;;;;;;;5.85;3.25;;;;;;;;;;5075883;28;20191;-62
2021/04/26 00:36:05;;;;;;;3.50;3.20;;;;;;;;;;5074331;28;20215;-61
2021/04/26 00:38:31;;;;;;;7.75;3.95;;;;;;;;;;5075814;28;20238;-61
2021/04/26 00:40:58;;;;;;;6.90;3.58;;;;;;;;;;5075585;28;20214;-61
2021/04/26 00:43:25;;;;;;;5.35;3.22;;;;;;;;;;5075631;28;20196;-61
2021/04/26 00:45:51;;;;;;;4.45;3.30;;;;;;;;;;5074068;28;20577;-62
2021/04/26 00:48:18;;;;;;;10.77;3.75;;;;;;;;;;5075227;28;20211;-62
2021/04/26 00:50:44;;;;;;;4.32;3.92;;;;;;;;;;5074162;28;20507;-61
2021/04/26 00:53:12;;;;;;;3.28;2.97;;;;;;;;;;5075109;28;20239;-62
2021/04/26 00:55:39;;;;;;;4.22;3.20;;;;;;;;;;5074229;28;20195;-62
2021/04/26 00:58:06;;;;;;;7.88;3.90;;;;;;;;;;5075335;28;20192;-61
2021/04/26 01:00:33;;;;;;;4.63;3.40;;;;;;;;;;5076593;28;20208;-65
2021/04/26 01:03:00;;;;;;;6.22;3.40;;;;;;;;;;5080750;28;20202;-65
2021/04/26 01:05:28;;;;;;;3.85;3.53;;;;;;;;;;5080493;28;20266;-65
2021/04/26 01:07:55;;;;;;;3.72;3.42;;;;;;;;;;5082194;28;20230;-65
2021/04/26 01:10:23;;;;;;;8.15;4.15;;;;;;;;;;5080437;28;20245;-65
2021/04/26 01:13:03;;;;;;;10.27;3.90;;;;;;;;;;5080289;28;20188;-65
2021/04/26 01:15:30;;;;;;;8.93;3.60;;;;;;;;;;5080601;28;20286;-66
2021/04/26 01:17:59;;;;;;;7.57;3.75;;;;;;;;;;5080565;28;20200;-64
2021/04/26 01:20:44;;;;;;;3.58;3.28;;;;;;;;;;5081393;28;20565;-64
2021/04/26 01:23:22;;;;;;;4.68;3.70;;;;;;;;;;5082449;28;20192;-64
2021/04/26 01:25:49;;;;;;;9.43;3.67;;;;;;;;;;5081443;28;20208;-64
2021/04/26 01:28:34;;;;;;;8.40;4.40;;;;;;;;;;5081451;28;20211;-64
2021/04/26 01:31:08;;;;;;;9.90;3.80;;;;;;;;;;5081624;28;20195;-65
2021/04/26 01:33:37;;;;;;;6.63;3.10;;;;;;;;;;5081017;28;20172;-64
2021/04/26 01:36:05;;;;;;;6.47;3.60;;;;;;;;;;5081884;28;20200;-66
2021/04/26 01:38:34;;;;;;;4.45;3.85;;;;;;;;;;5080507;28;20238;-64
2021/04/26 01:41:02;;;;;;;4.13;3.65;;;;;;;;;;5080113;28;20573;-64
2021/04/26 01:43:29;;;;;;;3.95;3.60;;;;;;;;;;5080843;28;20192;-64
2021/04/26 01:45:59;;;;;;;4.50;3.78;;;;;;;;;;5081266;28;20571;-64
2021/04/26 01:48:27;;;;;;;6.38;3.60;;;;;;;;;;5081680;28;20204;-64
2021/04/26 01:50:54;;;;;;;4.68;3.35;;;;;;;;;;5079970;28;20282;-64
2021/04/26 01:53:21;;;;;;;4.93;3.47;;;;;;;;;;5080655;28;20220;-64
2021/04/26 01:55:48;;;;;;;5.30;3.63;;;;;;;;;;5081118;28;20206;-64
2021/04/26 01:58:15;;;;;;;6.13;3.40;;;;;;;;;;5081267;28;20215;-64
2021/04/26 02:00:42;;;;;;;5.32;3.50;;;;;;;;;;5081177;28;20259;-64
2021/04/26 02:03:10;;;;;;;5.95;4.00;;;;;;;;;;5081471;28;20188;-65
2021/04/26 02:05:36;;;;;;;5.75;3.65;;;;;;;;;;5081355;28;20200;-64
2021/04/26 02:08:04;;;;;;;5.47;3.50;;;;;;;;;;5080559;28;20230;-64
2021/04/26 02:10:32;;;;;;;5.15;3.55;;;;;;;;;;5078383;28;20199;-64
2021/04/26 02:12:59;;;;;;;7.32;3.95;;;;;;;;;;5080527;28;20196;-64
2021/04/26 02:15:28;;;;;;;9.82;3.80;;;;;;;;;;5079015;28;20260;-64
2021/04/26 02:17:54;;;;;;;5.72;4.13;;;;;;;;;;5079449;28;20718;-64
2021/04/26 02:20:21;;;;;;;6.95;3.83;;;;;;;;;;5080987;28;20396;-65
2021/04/26 02:22:49;;;;;;;4.95;3.85;;;;;;;;;;5080024;28;20199;-65
2021/04/26 02:25:16;;;;;;;5.95;3.63;;;;;;;;;;5080674;28;20202;-65
2021/04/26 02:27:42;;;;;;;7.18;3.75;;;;;;;;;;5080660;28;20191;-65
2021/04/26 02:30:10;;;;;;;6.90;3.85;;;;;;;;;;5080340;28;20196;-65
2021/04/26 02:32:43;;;;;;;5.38;3.85;;;;;;;;;;5080806;28;20206;-65
2021/04/26 02:35:11;;;;;;;10.65;4.10;;;;;;;;;;5080206;28;20214;-65
2021/04/26 02:38:05;;;;;;;4.78;3.55;;;;;;;;;;5078981;28;20271;-65
2021/04/26 02:40:33;;;;;;;4.63;3.75;;;;;;;;;;5076070;28;20243;-65
2021/04/26 02:43:00;;;;;;;5.78;4.03;;;;;;;;;;5079883;28;20195;-65
2021/04/26 02:45:28;;;;;;;6.50;5.35;;;;;;;;;;5080750;28;20294;-65
2021/04/26 02:47:55;;;;;;;4.65;4.22;;;;;;;;;;5079818;28;20202;-65
2021/04/26 02:50:26;;;;;;;4.72;4.13;;;;;;;;;;5081101;28;20196;-65
2021/04/26 02:52:53;;;;;;;6.80;4.65;;;;;;;;;;5081474;28;20721;-65
2021/04/26 02:55:21;;;;;;;8.77;4.50;;;;;;;;;;5081170;28;20211;-65
2021/04/26 02:57:49;;;;;;;7.38;4.07;;;;;;;;;;5080919;28;20195;-65
2021/04/26 03:00:18;;;;;;;8.52;3.80;;;;;;;;;;5080486;28;20203;-65
2021/04/26 03:02:45;;;;;;;6.47;4.85;;;;;;;;;;5080091;28;20212;-65
2021/04/26 03:05:12;;;;;;;7.10;4.28;;;;;;;;;;5063248;28;20206;-65
2021/04/26 03:07:40;;;;;;;7.65;4.22;;;;;;;;;;5067132;28;20192;-65
2021/04/26 03:10:08;;;;;;;4.85;4.35;;;;;;;;;;5080033;28;20239;-65
2021/04/26 03:12:38;;;;;;;5.60;4.78;;;;;;;;;;5064479;28;20582;-64
2021/04/26 03:15:12;;;;;;;8.23;5.03;;;;;;;;;;5072913;28;20192;-64
2021/04/26 03:17:39;;;;;;;6.72;4.10;;;;;;;;;;5073087;28;20182;-64
2021/04/26 03:20:07;;;;;;;6.75;5.70;;;;;;;;;;5073167;28;20712;-64
2021/04/26 03:22:34;;;;;;;7.40;4.72;;;;;;;;;;5073782;28;20204;-65
2021/04/26 03:25:01;;;;;;;8.18;5.40;;;;;;;;;;5082198;28;20204;-65
2021/04/26 03:27:27;;;;;;;5.88;4.70;;;;;;;;;;5086123;28;20264;-65
2021/04/26 03:29:54;;;;;;;6.35;5.75;;;;;;;;;;5083941;28;20216;-65
2021/04/26 03:32:21;;;;;;;10.38;5.13;;;;;;;;;;5086525;28;20204;-65
2021/04/26 03:34:48;;;;;;;13.80;5.10;;;;;;;;;;5085800;28;20195;-65
2021/04/26 03:37:15;;;;;;;9.30;5.07;;;;;;;;;;5085114;28;20196;-65
2021/04/26 03:39:43;;;;;;;5.30;4.65;;;;;;;;;;5084037;28;20694;-62
2021/04/26 03:42:10;;;;;;;7.15;5.20;;;;;;;;;;5076955;28;20207;-62
2021/04/26 03:44:37;;;;;;;6.57;5.28;;;;;;;;;;5077000;28;20192;-62
2021/04/26 03:47:05;;;;;;;10.32;5.80;;;;;;;;;;5076637;28;20211;-62
2021/04/26 03:49:32;;;;;;;5.90;4.68;;;;;;;;;;5076486;28;20307;-62
2021/04/26 03:51:58;;;;;;;4.97;4.47;;;;;;;;;;5076566;28;20311;-62
2021/04/26 03:54:25;;;;;;;6.35;4.82;;;;;;;;;;5076453;28;20214;-62
2021/04/26 03:56:52;;;;;;;5.10;3.92;;;;;;;;;;5076493;28;20196;-62
2021/04/26 03:59:18;;;;;;;6.13;4.95;;;;;;;;;;5076839;28;20208;-63
2021/04/26 04:01:45;;;;;;;6.70;4.32;;;;;;;;;;5076532;28;20294;-62
2021/04/26 04:04:12;;;;;;;7.28;4.95;;;;;;;;;;5076655;28;20199;-63
2021/04/26 04:06:39;;;;;;;9.02;4.43;;;;;;;;;;5076518;28;20205;-63
2021/04/26 04:09:07;;;;;;;5.90;5.00;;;;;;;;;;5076365;28;20216;-65
2021/04/26 04:11:34;;;;;;;7.43;4.55;;;;;;;;;;5076139;28;20218;-65
2021/04/26 04:14:00;;;;;;;5.00;3.95;;;;;;;;;;5076542;28;20196;-65
2021/04/26 04:16:28;;;;;;;6.07;4.45;;;;;;;;;;5076329;28;20246;-65
2021/04/26 04:18:55;;;;;;;4.88;4.20;;;;;;;;;;5076121;28;20204;-65
2021/04/26 04:21:22;;;;;;;8.98;5.38;;;;;;;;;;5074694;28;20211;-63
2021/04/26 04:23:48;;;;;;;6.97;4.65;;;;;;;;;;5076183;28;20640;-64
2021/04/26 04:26:15;;;;;;;5.45;4.05;;;;;;;;;;5075974;28;20200;-64
2021/04/26 04:28:42;;;;;;;8.15;4.35;;;;;;;;;;5075743;28;20579;-64
2021/04/26 04:31:08;;;;;;;17.15;5.88;;;;;;;;;;5075794;28;20207;-63
2021/04/26 04:33:35;;;;;;;10.35;4.20;;;;;;;;;;5075759;28;20201;-64
2021/04/26 04:36:02;;;;;;;7.22;3.97;;;;;;;;;;5075765;28;20222;-64
2021/04/26 04:38:29;;;;;;;10.80;3.40;;;;;;;;;;5074874;28;20191;-64
2021/04/26 04:40:56;;;;;;;6.30;3.50;;;;;;;;;;5075692;28;20224;-64
2021/04/26 04:43:23;;;;;;;3.55;3.25;;;;;;;;;;5075674;28;20227;-64
2021/04/26 04:45:49;;;;;;;6.57;3.38;;;;;;;;;;5075621;28;20192;-64
2021/04/26 04:48:16;;;;;;;4.15;3.28;;;;;;;;;;5075772;28;20278;-64
2021/04/26 04:50:43;;;;;;;7.00;4.28;;;;;;;;;;5075251;28;20602;-64
2021/04/26 04:53:10;;;;;;;5.28;3.83;;;;;;;;;;5075284;28;20236;-65
2021/04/26 04:55:37;;;;;;;4.47;3.17;;;;;;;;;;5075386;28;20647;-65
2021/04/26 04:58:03;;;;;;;6.38;3.75;;;;;;;;;;5075466;28;20194;-65
2021/04/26 05:00:30;;;;;;;6.60;4.22;;;;;;;;;;5075518;28;20227;-64
2021/04/26 05:02:57;;;;;;;7.13;5.10;;;;;;;;;;5074291;28;20204;-65
2021/04/26 05:05:23;;;;;;;8.70;3.95;;;;;;;;;;5075197;28;20191;-64
2021/04/26 05:07:50;;;;;;;8.15;4.22;;;;;;;;;;5075499;28;20198;-64
2021/04/26 05:10:16;;;;;;;7.53;4.05;;;;;;;;;;5075233;28;20234;-64
2021/04/26 05:12:43;;;;;;;5.43;4.70;;;;;;;;;;5060227;28;20572;-65
2021/04/26 05:15:10;;;;;;;11.13;4.60;;;;;;;;;;5066616;28;20201;-64
2021/04/26 05:17:37;;;;;;;7.80;4.07;;;;;;;;;;5068955;28;20658;-64
2021/04/26 05:20:04;;;;;;;4.85;3.80;;;;;;;;;;5074633;28;20204;-64
2021/04/26 05:22:34;;;;;;;4.07;3.60;;;;;;;;;;5074560;28;20208;-64
2021/04/26 05:25:04;;;;;;;6.40;3.88;;;;;;;;;;5074305;28;20215;-64
2021/04/26 05:27:31;;;;;;;8.70;4.30;;;;;;;;;;5073493;28;20314;-64
2021/04/26 05:29:57;;;;;;;4.90;4.10;;;;;;;;;;5074245;28;20211;-64
2021/04/26 05:32:24;;;;;;;9.35;4.30;;;;;;;;;;5074512;28;20234;-64
2021/04/26 05:34:50;;;;;;;11.85;4.32;;;;;;;;;;5073954;28;20610;-65
2021/04/26 05:37:17;;;;;;;8.43;4.03;;;;;;;;;;5074121;28;20203;-65
2021/04/26 05:39:44;;;;;;;12.02;4.38;;;;;;;;;;5067124;28;20208;-65
2021/04/26 05:42:10;;;;;;;6.15;4.07;;;;;;;;;;5067360;28;20198;-65
2021/04/26 05:44:37;;;;;;;4.85;4.35;;;;;;;;;;5073995;28;20194;-65
2021/04/26 05:47:04;;;;;;;9.43;3.83;;;;;;;;;;5073920;28;20266;-65
2021/04/26 05:49:30;;;;;;;11.13;5.10;;;;;;;;;;5073829;28;20220;-65
2021/04/26 05:51:57;;;;;;;8.23;4.35;;;;;;;;;;5073403;28;20705;-65
2021/04/26 05:54:24;;;;;;;5.82;4.30;;;;;;;;;;5074649;28;20200;-65
2021/04/26 05:56:50;;;;;;;11.30;4.40;;;;;;;;;;5072972;28;20194;-65
2021/04/26 05:59:17;;;;;;;11.10;4.53;;;;;;;;;;5074179;28;20215;-65
2021/04/26 06:01:44;;;;;;;15.73;4.45;;;;;;;;;;5074336;28;20208;-65
2021/04/26 06:04:11;;;;;;;7.93;4.72;;;;;;;;;;5074240;28;20219;-65
2021/04/26 06:06:37;;;;;;;4.07;3.70;;;;;;;;;;5074699;28;20210;-65
2021/04/26 06:09:04;;;;;;;11.32;4.30;;;;;;;;;;5074008;28;20678;-64
2021/04/26 06:11:31;;;;;;;9.55;4.95;;;;;;;;;;5073777;28;20661;-64
2021/04/26 06:13:57;;;;;;;5.95;4.00;;;;;;;;;;5073856;28;20196;-64
2021/04/26 06:16:24;;;;;;;10.82;5.05;;;;;;;;;;5073665;28;20219;-66
2021/04/26 06:18:51;;;;;;;19.08;6.00;;;;;;;;;;5073578;28;20208;-65
2021/04/26 06:21:18;;;;;;;10.85;4.80;;;;;;;;;;5073992;28;20203;-65
2021/04/26 06:23:44;;;;;;;9.00;4.72;;;;;;;;;;5072742;28;20208;-65
2021/04/26 06:26:11;;;;;;;7.22;3.65;;;;;;;;;;5073666;28;20204;-65
2021/04/26 06:28:38;;;;;;;8.55;4.53;;;;;;;;;;5073561;28;20224;-65
2021/04/26 06:31:05;;;;;;;8.82;4.55;;;;;;;;;;5073524;28;20286;-66
2021/04/26 06:33:31;;;;;;;14.45;5.00;;;;;;;;;;5073592;28;20184;-66
2021/04/26 06:35:58;;;;;;;4.90;3.80;;;;;;;;;;5073894;28;20194;-65
2021/04/26 06:38:25;;;;;;;7.45;4.60;;;;;;;;;;5073692;28;20196;-66
2021/04/26 06:40:52;;;;;;;12.90;5.07;;;;;;;;;;5073488;28;20207;-64
2021/04/26 06:43:18;;;;;;;6.88;4.13;;;;;;;;;;5073999;28;20195;-65
2021/04/26 06:45:45;;;;;;;7.55;4.95;;;;;;;;;;5073855;28;20643;-65
2021/04/26 06:48:16;;;;;;;10.05;5.03;;;;;;;;;;5074080;28;20287;-66
2021/04/26 06:50:44;;;;;;;7.38;4.55;;;;;;;;;;5073380;28;20590;-66
2021/04/26 06:53:11;;;;;;;4.90;4.40;;;;;;;;;;5072108;28;20665;-66
2021/04/26 06:55:38;;;;;;;6.40;4.90;;;;;;;;;;5073691;28;20204;-66
2021/04/26 06:58:05;;;;;;;4.95;4.55;;;;;;;;;;5073758;28;20283;-66
2021/04/26 07:00:32;;;;;;;16.15;4.68;;;;;;;;;;5072986;28;20263;-66
2021/04/26 07:02:59;;;;;;;14.25;4.82;;;;;;;;;;5073402;28;20199;-65
2021/04/26 07:05:26;;;;;;;10.05;4.18;;;;;;;;;;5073775;28;20200;-66
2021/04/26 07:07:52;;;;;;;6.45;5.00;;;;;;;;;;5073723;28;20287;-66
2021/04/26 07:10:19;;;;;;;5.35;4.85;;;;;;;;;;5073098;28;20216;-66
2021/04/26 07:12:46;;;;;;;8.65;4.95;;;;;;;;;;5073128;28;20204;-66
2021/04/26 07:15:14;;;;;;;11.35;5.05;;;;;;;;;;5073704;28;20253;-65
2021/04/26 07:17:42;;;;;;;4.60;4.20;;;;;;;;;;5073615;28;20196;-66
2021/04/26 07:20:09;;;;;;;12.77;5.15;;;;;;;;;;5073472;28;20572;-65
2021/04/26 07:22:36;;;;;;;10.10;4.57;;;;;;;;;;5073254;28;20204;-66
2021/04/26 07:25:04;;;;;;;11.45;5.15;;;;;;;;;;5073600;28;20226;-67
2021/04/26 07:27:31;;;;;;;5.75;4.30;;;;;;;;;;5073600;28;20212;-66
2021/04/26 07:29:57;;;;;;;6.30;5.07;;;;;;;;;;5073646;28;20224;-66
2021/04/26 07:32:24;;;;;;;6.65;4.72;;;;;;;;;;5073357;28;20195;-65
2021/04/26 07:34:51;;;;;;;7.65;4.63;;;;;;;;;;5073467;28;20218;-66
2021/04/26 07:37:18;;;;;;;7.97;4.45;;;;;;;;;;5073438;28;20208;-66
2021/04/26 07:39:45;;;;;;;11.23;4.70;;;;;;;;;;5071613;28;20204;-66
2021/04/26 07:42:12;;;;;;;6.90;4.78;;;;;;;;;;5073201;28;20706;-65
2021/04/26 07:44:39;;;;;;;7.72;5.38;;;;;;;;;;5071821;28;20629;-65
2021/04/26 07:47:06;;;;;;;9.52;5.80;;;;;;;;;;5072962;28;20180;-65
2021/04/26 07:49:32;;;;;;;4.55;4.13;;;;;;;;;;5077668;28;20223;-65
2021/04/26 07:51:59;;;;;;;5.35;4.68;;;;;;;;;;5078606;28;20243;-65
2021/04/26 07:54:26;;;;;;;10.00;4.88;;;;;;;;;;5079571;28;20195;-65
2021/04/26 07:56:53;;;;;;;9.05;4.95;;;;;;;;;;5079631;28;20230;-65
2021/04/26 07:59:19;;;;;;;4.50;4.10;;;;;;;;;;5078262;28;20196;-65
2021/04/26 08:01:49;;;;;;;10.23;4.85;;;;;;;;;;5076544;28;20267;-66
2021/04/26 08:04:16;;;;;;;7.45;4.72;;;;;;;;;;5074489;28;20694;-65
2021/04/26 08:06:43;;;;;;;9.77;4.80;;;;;;;;;;5074039;28;20206;-65
2021/04/26 08:09:09;;;;;;;4.70;4.15;;;;;;;;;;5073565;28;20230;-65
2021/04/26 08:11:36;;;;;;;5.35;4.65;;;;;;;;;;5072782;28;20333;-65
2021/04/26 08:14:03;;;;;;;4.70;4.18;;;;;;;;;;5079209;28;20211;-64
2021/04/26 08:16:30;;;;;;;5.93;4.57;;;;;;;;;;5077657;28;20208;-64
2021/04/26 08:18:57;;;;;;;4.10;3.70;;;;;;;;;;5079853;28;20196;-65
2021/04/26 08:21:24;;;;;;;7.53;3.80;;;;;;;;;;5078941;28;20218;-65
2021/04/26 08:23:51;;;;;;;7.60;5.03;;;;;;;;;;5079849;28;20216;-63
2021/04/26 08:26:18;;;;;;;8.77;4.50;;;;;;;;;;5076360;28;20199;-63
2021/04/26 08:28:44;;;;;;;5.25;4.28;;;;;;;;;;5074668;28;20639;-62
2021/04/26 08:31:11;;;;;;;4.97;4.30;;;;;;;;;;5075197;28;20287;-63
2021/04/26 08:33:39;;;;;;;4.32;3.92;;;;;;;;;;5075979;28;20691;-64
2021/04/26 08:36:06;;;;;;;6.72;4.20;;;;;;;;;;5076178;28;20196;-62
2021/04/26 08:38:33;;;;;;;13.00;5.22;;;;;;;;;;5076230;28;20203;-63
2021/04/26 08:41:00;;;;;;;6.47;4.00;;;;;;;;;;5075731;28;20226;-63
2021/04/26 08:43:29;;;;;;;6.47;4.00;;;;;;;;;;5076042;28;20222;-63
2021/04/26 08:45:58;;;;;;;4.70;3.60;;;;;;;;;;5075482;28;20208;-63
2021/04/26 08:48:27;;;;;;;4.72;3.70;;;;;;;;;;5075857;28;20556;-64
2021/04/26 08:50:54;;;;;;;9.10;3.85;;;;;;;;;;5075324;28;20227;-64
2021/04/26 08:53:21;;;;;;;6.20;4.05;;;;;;;;;;5075563;28;20687;-64
2021/04/26 08:55:48;;;;;;;4.50;4.10;;;;;;;;;;5075950;28;20703;-62
2021/04/26 08:58:15;;;;;;;10.77;4.28;;;;;;;;;;5075720;28;20210;-64
2021/04/26 09:00:42;;;;;;;14.00;4.80;;;;;;;;;;5075687;28;20287;-63
2021/04/26 09:03:08;;;;;;;8.40;4.38;;;;;;;;;;5075627;28;20187;-63
2021/04/26 09:05:39;;;;;;;14.20;4.53;;;;;;;;;;5075399;28;20196;-64
2021/04/26 09:08:09;;;;;;;6.70;4.20;;;;;;;;;;5075373;28;20195;-63
2021/04/26 09:10:40;;;;;;;7.10;4.20;;;;;;;;;;5075615;28;20208;-63
2021/04/26 09:13:26;;;;;;;7.32;4.35;;;;;;;;;;5075548;28;20286;-63
2021/04/26 09:16:03;;;;;;;5.30;3.75;;;;;;;;;;5075374;28;20221;-63
2021/04/26 09:18:47;;;;;;;4.05;3.60;;;;;;;;;;5075266;28;20176;-63
2021/04/26 09:21:19;;;;;;;11.50;5.13;;;;;;;;;;5075169;28;20291;-63
2021/04/26 09:23:47;;;;;;;7.18;3.72;;;;;;;;;;5073583;28;20207;-63
2021/04/26 09:26:27;;;;;;;7.93;3.47;;;;;;;;;;5074967;28;20194;-64
2021/04/26 09:29:12;;;;;;;6.05;3.97;;;;;;;;;;5073572;28;20214;-64
2021/04/26 09:31:40;;;;;;;5.03;4.22;;;;;;;;;;5073507;28;20207;-64
2021/04/26 09:34:06;;;;;;;6.38;4.63;;;;;;;;;;5074602;28;20200;-62
2021/04/26 09:36:33;;;;;;;5.15;4.60;;;;;;;;;;5074650;28;20188;-63
2021/04/26 09:39:04;;;;;;;7.88;3.50;;;;;;;;;;5073605;28;20196;-65
2021/04/26 09:41:32;;;;;;;8.00;4.07;;;;;;;;;;5074932;28;20624;-64
2021/04/26 09:43:59;;;;;;;7.25;4.85;;;;;;;;;;5075203;28;20267;-63
2021/04/26 09:46:37;;;;;;;4.72;4.20;;;;;;;;;;5074786;28;20204;-64
2021/04/26 09:49:28;;;;;;;8.73;4.18;;;;;;;;;;5074739;28;20179;-64
2021/04/26 09:51:59;;;;;;;6.53;5.00;;;;;;;;;;5069984;28;20227;-64
2021/04/26 09:54:41;;;;;;;6.30;4.55;;;;;;;;;;5074714;28;20169;-63
2021/04/26 09:57:08;;;;;;;8.95;4.47;;;;;;;;;;5073169;28;20200;-64
2021/04/26 09:59:35;;;;;;;5.45;4.55;;;;;;;;;;5074155;28;20204;-63
2021/04/26 10:02:05;;;;;;;7.32;3.70;;;;;;;;;;5074120;28;20207;-63
2021/04/26 10:04:32;;;;;;;4.70;4.30;;;;;;;;;;5074625;28;20652;-68
2021/04/26 10:06:59;;;;;;;10.00;4.20;;;;;;;;;;5074219;28;20552;-68
2021/04/26 10:09:26;;;;;;;7.38;5.00;;;;;;;;;;5074281;28;20219;-62
2021/04/26 10:11:54;;;;;;;5.18;4.68;;;;;;;;;;5074650;28;20709;-62
2021/04/26 10:14:20;;;;;;;11.23;4.63;;;;;;;;;;5074315;28;20211;-62
2021/04/26 10:16:55;;;;;;;5.05;3.60;;;;;;;;;;5074355;28;20214;-62
2021/04/26 10:19:31;;;;;;;9.70;4.50;;;;;;;;;;5074919;28;20203;-63
2021/04/26 10:21:59;;;;;;;8.52;4.22;;;;;;;;;;5075890;28;20904;-62
2021/04/26 10:24:26;;;;;;;7.05;4.30;;;;;;;;;;5075865;28;20188;-62
2021/04/26 10:26:57;;;;;;;5.15;3.83;;;;;;;;;;5074499;28;20199;-63
2021/04/26 10:29:27;;;;;;;6.55;4.25;;;;;;;;;;5074957;28;20302;-63
2021/04/26 10:32:00;;;;;;;4.37;3.57;;;;;;;;;;5074718;28;20188;-65
2021/04/26 10:34:28;;;;;;;5.93;3.83;;;;;;;;;;5074397;28;21208;-64
2021/04/26 10:37:00;;;;;;;4.17;3.70;;;;;;;;;;5074007;28;20279;-63
2021/04/26 10:39:28;;;;;;;6.90;4.00;;;;;;;;;;5073886;28;20615;-63
2021/04/26 10:41:57;;;;;;;8.00;4.13;;;;;;;;;;5073506;28;20611;-63
2021/04/26 10:44:39;;;;;;;9.00;3.80;;;;;;;;;;5073662;28;20624;-63
2021/04/26 10:47:23;;;;;;;7.57;4.60;;;;;;;;;;5073748;28;21013;-63
2021/04/26 10:50:15;;;;;;;6.67;3.63;;;;;;;;;;5073627;28;20715;-63
2021/04/26 10:52:42;;;;;;;5.20;4.43;;;;;;;;;;5073006;28;20653;-63
2021/04/26 10:55:11;;;;;;;5.50;3.63;;;;;;;;;;5073135;28;20602;-63
2021/04/26 10:57:43;;;;;;;5.00;3.80;;;;;;;;;;5072431;28;20621;-63
2021/04/26 11:00:31;;;;;;;4.77;4.37;;;;;;;;;;5073557;28;20636;-63
2021/04/26 11:03:09;;;;;;;7.43;4.07;;;;;;;;;;5068757;28;20575;-62
2021/04/26 11:05:37;;;;;;;5.03;3.97;;;;;;;;;;5064297;28;20657;-63
2021/04/26 11:08:13;;;;;;;4.17;3.60;;;;;;;;;;5072633;28;20610;-63
2021/04/26 11:10:44;;;;;;;6.13;4.57;;;;;;;;;;5072543;28;20657;-63
2021/04/26 11:13:29;;;;;;;19.33;4.47;;;;;;;;;;5072468;28;20618;-63
2021/04/26 11:16:06;;;;;;;5.83;3.90;;;;;;;;;;5072765;28;20607;-63
2021/04/26 11:18:37;;;;;;;5.20;3.83;;;;;;;;;;5071352;28;21174;-63
2021/04/26 11:21:04;;;;;;;14.50;4.10;;;;;;;;;;5073001;28;20628;-63
2021/04/26 11:23:40;;;;;;;4.13;3.60;;;;;;;;;;5072563;28;20638;-63
2021/04/26 11:26:16;;;;;;;5.00;3.90;;;;;;;;;;5073301;28;21186;-62
2021/04/26 11:29:02;;;;;;;3.67;3.37;;;;;;;;;;5073211;28;20598;-62
2021/04/26 11:31:44;;;;;;;3.40;3.07;;;;;;;;;;5073572;28;20661;-62
2021/04/26 11:34:12;;;;;;;3.80;3.27;;;;;;;;;;5073577;28;20652;-63
2021/04/26 11:36:39;;;;;;;6.30;3.57;;;;;;;;;;5073678;28;20624;-62
2021/04/26 11:39:07;;;;;;;5.97;3.17;;;;;;;;;;5073385;28;20620;-63
2021/04/26 11:41:41;;;;;;;6.00;3.20;;;;;;;;;;5073370;28;20674;-62
2021/04/26 11:44:08;;;;;;;4.50;3.27;;;;;;;;;;5073374;28;20614;-63
2021/04/26 11:46:35;;;;;;;5.93;3.50;;;;;;;;;;5074520;28;20625;-62
2021/04/26 11:49:11;;;;;;;4.17;3.47;;;;;;;;;;5076986;28;20592;-63
2021/04/26 11:51:38;;;;;;;5.10;3.37;;;;;;;;;;5076780;28;20708;-62
2021/04/26 11:54:09;;;;;;;18.43;4.63;;;;;;;;;;5076771;28;20612;-63
2021/04/26 11:56:36;;;;;;;6.20;3.00;;;;;;;;;;5077033;28;20784;-64
2021/04/26 11:59:07;;;;;;;4.03;3.17;;;;;;;;;;5076784;28;20608;-63
2021/04/26 12:01:34;;;;;;;5.30;3.37;;;;;;;;;;5065731;28;20623;-64
2021/04/26 12:04:01;;;;;;;3.73;2.67;;;;;;;;;;5072107;28;20618;-64
2021/04/26 12:06:28;;;;;;;4.73;3.40;;;;;;;;;;5076348;28;20984;-64
2021/04/26 12:08:55;;;;;;;4.00;3.27;;;;;;;;;;5076076;28;20640;-63
2021/04/26 12:11:23;;;;;;;9.53;3.07;;;;;;;;;;5076173;28;20719;-63
2021/04/26 12:14:25;;;;;;;3.83;2.67;;;;;;;;;;5076387;28;20712;-64
2021/04/26 12:16:52;;;;;;;3.67;3.37;;;;;;;;;;5064461;28;20660;-64
2021/04/26 12:19:32;;;;;;;5.90;3.33;;;;;;;;;;5062637;28;20610;-67
2021/04/26 12:21:58;;;;;;;4.13;2.97;;;;;;;;;;5078420;28;20678;-66
2021/04/26 12:24:25;;;;;;;7.03;4.23;;;;;;;;;;5067784;28;20614;-66
2021/04/26 12:26:52;;;;;;;3.10;2.90;;;;;;;;;;5059915;28;20655;-66
2021/04/26 12:29:28;;;;;;;3.63;3.33;;;;;;;;;;5079036;28;20640;-66
2021/04/26 12:32:13;;;;;;;3.60;3.30;;;;;;;;;;5076887;28;20618;-66
2021/04/26 12:34:48;;;;;;;3.70;3.13;;;;;;;;;;5058364;28;20627;-66
2021/04/26 12:37:15;;;;;;;3.70;2.70;;;;;;;;;;5075792;28;20609;-67
2021/04/26 12:39:42;;;;;;;4.10;3.60;;;;;;;;;;5078876;28;20716;-67
2021/04/26 12:42:10;;;;;;;3.90;3.50;;;;;;;;;;5077616;28;20693;-67
2021/04/26 12:44:36;;;;;;;5.53;2.97;;;;;;;;;;5078160;28;20602;-67
2021/04/26 12:47:15;;;;;;;7.03;3.50;;;;;;;;;;5077255;28;20617;-67
2021/04/26 12:49:42;;;;;;;3.63;3.33;;;;;;;;;;5079616;28;20661;-67
2021/04/26 12:52:19;;;;;;;3.33;2.87;;;;;;;;;;5078620;28;20633;-67
2021/04/26 12:55:02;;;;;;;4.57;3.03;;;;;;;;;;5076596;28;20613;-65
2021/04/26 12:57:29;;;;;;;6.47;3.07;;;;;;;;;;5076067;28;21151;-65
2021/04/26 12:59:55;;;;;;;20.73;4.23;;;;;;;;;;5075604;28;20602;-65
2021/04/26 13:02:23;;;;;;;44.60;4.83;;;;;;;;;;5075299;28;20598;-65
2021/04/26 13:04:50;;;;;;;24.13;3.63;;;;;;;;;;5075674;28;20621;-66
2021/04/26 13:07:18;;;;;;;24.83;3.87;;;;;;;;;;5076313;28;20602;-65
2021/04/26 13:09:45;;;;;;;6.07;3.10;;;;;;;;;;5076182;28;21219;-67
2021/04/26 13:12:12;;;;;;;3.97;2.43;;;;;;;;;;5071222;28;20984;-66
2021/04/26 13:14:39;;;;;;;2.70;2.50;;;;;;;;;;5075233;28;20614;-66
2021/04/26 13:17:12;;;;;;;8.80;2.73;;;;;;;;;;5074845;28;20917;-66
2021/04/26 13:19:45;;;;;;;4.43;3.23;;;;;;;;;;5075247;28;20614;-66
2021/04/26 13:22:28;;;;;;;2.93;2.73;;;;;;;;;;5075625;28;20622;-66
2021/04/26 13:24:56;;;;;;;3.27;2.97;;;;;;;;;;5075563;28;21085;-67
2021/04/26 13:27:22;;;;;;;2.97;2.70;;;;;;;;;;5075303;28;20614;-67
2021/04/26 13:29:51;;;;;;;4.13;2.73;;;;;;;;;;5075342;28;20632;-65
2021/04/26 13:32:18;;;;;;;3.53;2.50;;;;;;;;;;5075136;28;20709;-65
2021/04/26 13:34:47;;;;;;;5.10;2.90;;;;;;;;;;5075698;28;20608;-66
2021/04/26 13:37:14;;;;;;;2.67;2.50;;;;;;;;;;5075221;28;20622;-65
2021/04/26 13:39:40;;;;;;;4.23;2.80;;;;;;;;;;5074788;28;20604;-65
2021/04/26 13:42:08;;;;;;;3.07;2.67;;;;;;;;;;5074993;28;20691;-66
2021/04/26 13:44:34;;;;;;;3.50;3.03;;;;;;;;;;5074992;28;20632;-66
2021/04/26 13:47:02;;;;;;;5.33;2.30;;;;;;;;;;5074662;28;20606;-65
2021/04/26 13:49:28;;;;;;;5.43;2.17;;;;;;;;;;5075265;28;20697;-66
2021/04/26 13:51:56;;;;;;;2.60;2.40;;;;;;;;;;5075049;28;20684;-66
2021/04/26 13:54:23;;;;;;;6.77;3.27;;;;;;;;;;5075426;28;21015;-66
2021/04/26 13:56:50;;;;;;;5.63;3.13;;;;;;;;;;5076659;28;20693;-66
2021/04/26 13:59:16;;;;;;;9.53;3.00;;;;;;;;;;5082554;28;20618;-66
2021/04/26 14:01:43;;;;;;;10.80;2.60;;;;;;;;;;5076664;28;20657;-66
2021/04/26 14:04:10;;;;;;;2.50;2.30;;;;;;;;;;5075733;28;20622;-66
2021/04/26 14:06:36;;;;;;;6.93;3.07;;;;;;;;;;5074554;28;20610;-66
2021/04/26 14:09:07;;;;;;;3.67;2.63;;;;;;;;;;5074219;28;20613;-66
2021/04/26 14:11:34;;;;;;;3.90;3.30;;;;;;;;;;5074057;28;20662;-67
2021/04/26 14:14:01;;;;;;;3.10;2.83;;;;;;;;;;5074530;28;20624;-66
2021/04/26 14:16:27;;;;;;;3.10;2.70;;;;;;;;;;5074790;28;20622;-66
2021/04/26 14:18:54;;;;;;;5.50;2.60;;;;;;;;;;5074749;28;20614;-67
2021/04/26 14:21:22;;;;;;;5.43;2.77;;;;;;;;;;5074668;28;20626;-66
2021/04/26 14:23:49;;;;;;;6.40;3.03;;;;;;;;;;5076557;28;20621;-67
2021/04/26 14:26:16;;;;;;;3.03;2.67;;;;;;;;;;5074876;28;21158;-67
2021/04/26 14:28:42;;;;;;;2.47;2.30;;;;;;;;;;5056417;28;20626;-66
2021/04/26 14:31:09;;;;;;;3.50;3.17;;;;;;;;;;5074331;28;20614;-66
2021/04/26 14:33:39;;;;;;;10.93;3.03;;;;;;;;;;5073942;28;20957;-66
2021/04/26 14:36:05;;;;;;;7.20;2.57;;;;;;;;;;5072710;28;20628;-67
2021/04/26 14:38:32;;;;;;;12.00;3.00;;;;;;;;;;5074118;28;20609;-67
2021/04/26 14:40:59;;;;;;;6.83;2.77;;;;;;;;;;5074608;28;21239;-66
2021/04/26 14:43:29;;;;;;;7.13;3.10;;;;;;;;;;5074349;28;20598;-66
2021/04/26 14:45:58;;;;;;;4.40;2.53;;;;;;;;;;5074047;28;20717;-66
2021/04/26 14:48:25;;;;;;;2.80;2.50;;;;;;;;;;5073847;28;20644;-66
2021/04/26 14:50:52;;;;;;;4.90;3.10;;;;;;;;;;5074236;28;20629;-66